Goettingen, Germany

3:59 AM CET on February 11, 2016 (GMT +0100)
Fritzlar Army | | Change Station
CLOSE
Current Station
Airport
Location: Fritzlar,
Elevation: 594 ft
Nearby Weather Stations

Elev 594 ft 51.12 °N, 9.28 °E | Updated 39 minutes ago

Mostly Cloudy
Mostly Cloudy
37 °F
Feels Like 33 °F
N
6
Wind Variable Wind from SW

Today
High -- | Low -- °F
--% Chance of Precip.
Yesterday
High -- | Low -- °F
Precip. -- in
Pressure 29.56 in
Visibility 6.2 miles
Clouds Mostly Cloudy 3000 ft
Windchill 33 °F
Dew Point 34 °F
Humidity 87%
Rainfall 0.00 in
Snow Depth Not available.
7:42 AM 5:26 PM
Waxing Crescent, 9% visible
METAR ETHF 110220Z 22005KT 9999 BKN030 03/01 Q1001 BLU
Pressure 29.56 in
Visibility 6.2 miles
Clouds Mostly Cloudy 3000 ft
Windchill 33 °F
Dew Point 34 °F
Humidity 87%
Rainfall 0.00 in
Snow Depth Not available.
7:42 AM 5:26 PM
Waxing Crescent, 9% visible
METAR ETHF 110220Z 22005KT 9999 BKN030 03/01 Q1001 BLU

10-Day Weather Forecast

Almanac

Astronomy

Feb. 11, 2016 Rise Set
Actual Time
Civil Twilight
Nautical Twilight
Astronomical Twilight
Moon
Length of Visible Light
Length of Day
Tomorrow will be .
, % of the Moon is Illuminated

Today's Extremes

Country Highs Country Lows

Community

WunderPhotos

Upload Photos

1,891,986 photos uploaded!

WunderBlog® & News

Nearby

Air Quality

  Air Quality AQ Index Pollutant
Not available.

Snow Depth

Station Depth Elevation

Earthquake Activity

City Distance Mag. Time & Date
Minimum magnitude displayed is 2.5.

Coastal Water Temperatures

Place Temperature

Stations

Nearby Weather Stations

Station Location Temp. Windchill Dew Point Humidity Wind Precip. Elev Updated Type